createdAt,value
2023-04-18T00:03:29.276Z,99.90
2023-04-18T00:07:31.020Z,99.90
2023-04-18T00:11:32.176Z,99.90
2023-04-18T00:15:36.387Z,99.90
2023-04-18T00:19:39.450Z,99.90
2023-04-18T00:23:40.999Z,99.90
2023-04-18T00:27:42.253Z,99.90
2023-04-18T00:31:43.493Z,99.90
2023-04-18T00:35:44.664Z,99.90
2023-04-18T00:39:45.822Z,99.90
2023-04-18T00:43:46.973Z,99.90
2023-04-18T00:47:48.135Z,99.90
2023-04-18T00:51:50.001Z,99.90
2023-04-18T00:55:51.545Z,99.90
2023-04-18T00:59:52.636Z,99.90
2023-04-18T01:03:53.840Z,99.90
2023-04-18T01:07:57.129Z,99.90
2023-04-18T01:11:58.307Z,99.90
2023-04-18T01:15:59.590Z,99.90
2023-04-18T01:20:01.617Z,99.90
2023-04-18T01:24:14.271Z,99.90
2023-04-18T01:28:16.502Z,99.90
2023-04-18T01:32:20.190Z,99.90
2023-04-18T01:36:21.347Z,99.90
2023-04-18T01:40:23.631Z,99.90
2023-04-18T01:44:24.780Z,99.90
2023-04-18T01:48:25.941Z,99.90
2023-04-18T01:52:27.115Z,99.90
2023-04-18T01:56:28.266Z,99.90
2023-04-18T02:00:29.517Z,99.90
2023-04-18T02:04:30.685Z,99.90
2023-04-18T02:08:33.738Z,99.90
2023-04-18T02:12:34.836Z,99.90
2023-04-18T02:16:36.127Z,99.90
2023-04-18T02:20:37.726Z,99.90
2023-04-18T02:24:38.880Z,99.90
2023-04-18T02:28:39.946Z,99.90
2023-04-18T02:32:41.182Z,99.90
2023-04-18T02:36:42.272Z,99.90
2023-04-18T02:40:43.629Z,99.90
2023-04-18T02:44:44.773Z,99.90
2023-04-18T02:48:45.824Z,99.90
2023-04-18T02:52:46.880Z,99.90
2023-04-18T02:56:48.065Z,99.90
2023-04-18T03:00:52.037Z,99.90
2023-04-18T03:04:53.206Z,99.90
2023-04-18T03:08:55.122Z,99.90
2023-04-18T03:12:56.293Z,99.90
2023-04-18T03:16:57.351Z,99.90
2023-04-18T03:20:58.609Z,99.90
2023-04-18T03:24:59.996Z,99.90
2023-04-18T03:29:02.246Z,99.90
2023-04-18T03:33:04.841Z,99.90
2023-04-18T03:37:05.974Z,99.90
2023-04-18T03:41:07.221Z,99.90
2023-04-18T03:45:09.188Z,99.90
2023-04-18T03:49:10.253Z,99.90
2023-04-18T03:53:11.375Z,99.90
2023-04-18T03:57:12.550Z,99.90
2023-04-18T04:01:13.708Z,99.90
2023-04-18T04:05:14.890Z,99.90
2023-04-18T04:09:16.062Z,99.90
2023-04-18T04:13:17.254Z,99.90
2023-04-18T04:17:18.426Z,99.90
2023-04-18T04:21:21.142Z,99.90
2023-04-18T04:25:23.764Z,99.90
2023-04-18T04:29:28.310Z,99.90
2023-04-18T04:33:32.262Z,99.90
2023-04-18T04:37:37.165Z,99.90
2023-04-18T04:41:40.280Z,99.90
2023-04-18T04:45:44.638Z,99.90
2023-04-18T04:49:46.036Z,99.90
2023-04-18T04:53:56.850Z,99.90
2023-04-18T04:57:59.005Z,99.90
2023-04-18T05:02:00.235Z,99.90
2023-04-18T05:06:02.986Z,99.90
2023-04-18T05:10:05.660Z,99.90
2023-04-18T05:14:07.852Z,99.90
2023-04-18T05:18:09.131Z,99.90
2023-04-18T05:22:11.187Z,99.90
2023-04-18T05:26:12.416Z,99.90
2023-04-18T05:30:13.869Z,99.90
2023-04-18T05:34:15.289Z,99.90
2023-04-18T05:38:16.689Z,99.90
2023-04-18T05:42:17.854Z,99.90
2023-04-18T05:46:19.052Z,99.90
2023-04-18T05:50:20.189Z,99.90
2023-04-18T05:54:21.410Z,99.90
2023-04-18T05:58:22.645Z,99.90
2023-04-18T06:02:23.955Z,99.90
2023-04-18T06:06:25.430Z,99.90
2023-04-18T06:10:26.560Z,99.90
2023-04-18T06:14:27.980Z,99.90
2023-04-18T06:18:29.170Z,99.90
2023-04-18T06:22:30.409Z,99.90
2023-04-18T06:26:31.876Z,99.90
2023-04-18T06:30:33.129Z,99.90
2023-04-18T06:34:34.292Z,99.90
2023-04-18T06:38:35.439Z,99.90
2023-04-18T06:42:36.728Z,99.90
2023-04-18T06:46:37.868Z,99.90
2023-04-18T06:50:39.056Z,99.90
2023-04-18T06:54:40.237Z,99.90
2023-04-18T06:58:41.430Z,99.90
2023-04-18T07:02:42.858Z,99.90
2023-04-18T07:06:44.130Z,99.90
2023-04-18T07:10:45.298Z,99.90
2023-04-18T07:14:46.431Z,99.90
2023-04-18T07:18:47.715Z,99.90
2023-04-18T07:22:48.906Z,99.90
2023-04-18T07:26:53.132Z,99.90
2023-04-18T07:30:56.083Z,99.90
2023-04-18T07:34:58.438Z,99.90
2023-04-18T07:39:01.411Z,99.90
2023-04-18T07:43:02.792Z,99.90
2023-04-18T07:47:06.883Z,99.90
2023-04-18T07:51:08.083Z,99.90
2023-04-18T07:55:09.321Z,99.90
2023-04-18T07:59:10.767Z,99.90
2023-04-18T08:03:12.878Z,99.90
2023-04-18T08:07:15.610Z,99.90
2023-04-18T08:11:16.775Z,99.90
2023-04-18T08:15:17.944Z,99.90
2023-04-18T08:19:19.011Z,99.90
2023-04-18T08:23:20.745Z,99.90
2023-04-18T08:27:21.922Z,99.90
2023-04-18T08:31:23.173Z,99.90
2023-04-18T08:35:24.369Z,99.90
2023-04-18T08:39:25.586Z,99.90
2023-04-18T08:43:27.501Z,99.90
2023-04-18T08:47:29.186Z,99.90
2023-04-18T08:51:32.410Z,99.90
2023-04-18T08:55:34.908Z,99.90
2023-04-18T08:59:36.080Z,99.90
2023-04-18T09:03:42.363Z,99.90
2023-04-18T09:07:43.503Z,99.90
2023-04-18T09:11:44.949Z,99.90
2023-04-18T09:15:50.196Z,99.90
2023-04-18T09:19:53.264Z,99.90
2023-04-18T09:24:20.271Z,99.90
2023-04-18T09:28:29.520Z,99.90
2023-04-18T09:32:30.731Z,99.90
2023-04-18T09:36:33.211Z,99.90
2023-04-18T09:40:34.883Z,99.90
2023-04-18T09:44:37.555Z,99.90
2023-04-18T09:48:39.999Z,99.90
2023-04-18T09:52:42.247Z,99.90
2023-04-18T09:56:44.762Z,99.90
2023-04-18T10:00:46.947Z,99.90
2023-04-18T10:04:50.929Z,99.90
2023-04-18T10:08:54.467Z,99.90
2023-04-18T10:12:57.738Z,99.90
2023-04-18T10:16:59.403Z,99.90
2023-04-18T10:21:03.879Z,99.90
2023-04-18T10:25:06.186Z,98.50
2023-04-18T10:29:08.659Z,99.90
2023-04-18T10:33:32.285Z,99.90
2023-04-18T10:37:32.829Z,99.90
2023-04-18T10:41:34.105Z,99.90
2023-04-18T10:45:35.789Z,99.90
2023-04-18T10:49:36.970Z,99.90
2023-04-18T10:53:38.250Z,99.90
2023-04-18T10:57:41.845Z,96.30
2023-04-18T11:01:46.300Z,95.10
2023-04-18T11:05:48.734Z,99.10
2023-04-18T11:09:53.973Z,95.40
2023-04-18T11:13:58.646Z,93.20
2023-04-18T11:18:04.244Z,96.30
2023-04-18T11:22:05.417Z,99.60
2023-04-18T11:26:06.796Z,96.30
2023-04-18T11:30:08.417Z,94.20
2023-04-18T11:34:09.592Z,98.60
2023-04-18T11:38:13.204Z,99.90
2023-04-18T11:42:14.540Z,99.90
2023-04-18T11:46:16.512Z,99.90
2023-04-18T11:50:17.649Z,99.90
2023-04-18T11:54:39.056Z,99.90
2023-04-18T11:58:40.205Z,99.10
2023-04-18T12:02:45.285Z,99.90
2023-04-18T12:06:48.033Z,99.10
2023-04-18T12:10:51.058Z,99.90
2023-04-18T12:14:59.977Z,99.60
2023-04-18T12:19:01.331Z,99.90
2023-04-18T12:23:02.891Z,99.90
2023-04-18T12:27:04.474Z,99.90
2023-04-18T12:31:06.578Z,99.90
2023-04-18T12:35:08.550Z,99.90
2023-04-18T12:39:10.019Z,99.90
2023-04-18T12:43:11.182Z,99.90
2023-04-18T12:47:12.397Z,99.90
2023-04-18T12:51:17.271Z,99.90
2023-04-18T12:55:19.728Z,99.90
2023-04-18T12:59:26.897Z,99.90
2023-04-18T13:03:31.700Z,99.90
2023-04-18T13:07:38.690Z,99.90
2023-04-18T13:11:52.050Z,99.90
2023-04-18T13:15:53.039Z,99.90
2023-04-18T13:19:54.330Z,99.90
2023-04-18T13:23:56.237Z,99.90
2023-04-18T13:28:00.201Z,99.90
2023-04-18T13:32:01.525Z,99.90
2023-04-18T13:36:02.981Z,99.90
2023-04-18T13:40:06.067Z,99.90
2023-04-18T13:44:07.521Z,99.90
2023-04-18T13:48:08.835Z,98.70
2023-04-18T13:52:10.450Z,99.90
2023-04-18T13:56:12.296Z,96.50
2023-04-18T14:00:14.452Z,99.90
2023-04-18T14:04:15.904Z,99.10
2023-04-18T14:08:17.305Z,95.50
2023-04-18T14:12:18.440Z,94.30
2023-04-18T14:16:19.706Z,97.20
2023-04-18T14:20:20.869Z,99.10
2023-04-18T14:24:22.021Z,99.90
2023-04-18T14:28:24.313Z,99.90
2023-04-18T14:32:25.764Z,99.90
2023-04-18T14:36:26.889Z,99.90
2023-04-18T14:40:27.966Z,99.90
2023-04-18T14:44:30.257Z,99.90
2023-04-18T14:48:31.664Z,99.90
2023-04-18T14:52:32.798Z,99.90
2023-04-18T14:56:33.993Z,99.90
2023-04-18T15:00:35.200Z,99.90
2023-04-18T15:04:36.518Z,99.90
2023-04-18T15:08:37.732Z,99.90
2023-04-18T15:12:38.899Z,99.90
2023-04-18T15:16:40.158Z,97.40
2023-04-18T15:20:41.326Z,95.30
2023-04-18T15:24:44.713Z,95.10
2023-04-18T15:28:51.937Z,95.90
2023-04-18T15:32:53.302Z,97.00
2023-04-18T15:36:54.459Z,98.70
2023-04-18T15:40:55.738Z,95.90
2023-04-18T15:44:58.129Z,98.30
2023-04-18T15:49:03.039Z,99.90
2023-04-18T15:53:06.717Z,99.90
2023-04-18T15:57:09.552Z,99.90
2023-04-18T16:01:19.937Z,99.90
2023-04-18T16:05:21.369Z,99.90
2023-04-18T16:09:22.537Z,99.90
2023-04-18T16:13:23.976Z,99.90
2023-04-18T16:17:28.623Z,99.90
2023-04-18T16:21:35.550Z,99.90
2023-04-18T16:25:37.476Z,99.90
2023-04-18T16:29:38.942Z,99.90
2023-04-18T16:33:40.143Z,99.90
2023-04-18T16:37:41.248Z,99.90
2023-04-18T16:41:42.297Z,99.90
2023-04-18T16:45:44.188Z,99.90
2023-04-18T16:49:47.202Z,99.90
2023-04-18T16:53:48.572Z,99.90
2023-04-18T16:57:50.132Z,99.90
2023-04-18T17:01:51.323Z,99.90
2023-04-18T17:05:52.450Z,99.90
2023-04-18T17:09:53.634Z,99.90
2023-04-18T17:13:55.676Z,99.90
2023-04-18T17:17:58.814Z,99.90
2023-04-18T17:22:00.006Z,99.90
2023-04-18T17:26:01.199Z,99.90
2023-04-18T17:30:02.616Z,99.90
2023-04-18T17:34:03.775Z,99.90
2023-04-18T17:38:05.056Z,99.90
2023-04-18T17:42:06.171Z,99.90
2023-04-18T17:46:07.437Z,99.90
2023-04-18T17:50:09.457Z,99.90
2023-04-18T17:54:12.522Z,99.90
2023-04-18T17:58:15.572Z,99.90
2023-04-18T18:02:16.932Z,99.90
2023-04-18T18:06:18.130Z,99.90
2023-04-18T18:10:19.808Z,99.90
2023-04-18T18:14:21.427Z,99.90
2023-04-18T18:18:22.867Z,99.90
2023-04-18T18:22:25.356Z,99.90
2023-04-18T18:26:26.535Z,99.90
2023-04-18T18:30:27.881Z,99.90
2023-04-18T18:34:30.967Z,99.90
2023-04-18T18:38:32.120Z,99.90
2023-04-18T18:42:33.268Z,99.90
2023-04-18T18:46:34.827Z,99.90
2023-04-18T18:50:36.021Z,99.90
2023-04-18T18:54:37.249Z,99.90
2023-04-18T18:58:38.542Z,99.90
2023-04-18T19:02:40.305Z,99.90
2023-04-18T19:06:41.575Z,99.90
2023-04-18T19:10:42.744Z,99.90
2023-04-18T19:14:45.799Z,99.90
2023-04-18T19:18:48.471Z,99.90
2023-04-18T19:22:49.713Z,99.90
2023-04-18T19:26:50.876Z,99.90
2023-04-18T19:30:52.948Z,99.90
2023-04-18T19:34:55.267Z,99.90
2023-04-18T19:38:57.320Z,99.90
2023-04-18T19:42:58.978Z,99.90
2023-04-18T19:47:00.235Z,99.90
2023-04-18T19:51:04.286Z,99.90
2023-04-18T19:55:06.727Z,99.90
2023-04-18T19:59:11.333Z,99.90
2023-04-18T20:03:14.637Z,99.90
2023-04-18T20:07:16.594Z,99.90
2023-04-18T20:11:18.376Z,99.90
2023-04-18T20:15:20.711Z,99.90
2023-04-18T20:19:26.266Z,99.90
2023-04-18T20:23:27.654Z,99.90
2023-04-18T20:27:29.397Z,99.90
2023-04-18T20:31:31.047Z,99.90
2023-04-18T20:35:32.906Z,99.90
2023-04-18T20:39:34.302Z,99.90
2023-04-18T20:43:36.718Z,99.90
2023-04-18T20:47:44.045Z,99.90
2023-04-18T20:51:45.942Z,99.90
2023-04-18T20:55:47.982Z,99.90
2023-04-18T20:59:49.696Z,99.90
2023-04-18T21:03:51.380Z,99.90
2023-04-18T21:07:52.904Z,99.90
2023-04-18T21:11:54.889Z,99.90
2023-04-18T21:15:56.252Z,99.90
2023-04-18T21:19:59.936Z,99.90
2023-04-18T21:24:01.885Z,99.90
2023-04-18T21:28:03.304Z,99.90
2023-04-18T21:32:04.503Z,99.90
2023-04-18T21:36:05.722Z,99.90
2023-04-18T21:40:07.728Z,99.90
2023-04-18T21:44:08.948Z,99.90
2023-04-18T21:48:10.424Z,99.90
2023-04-18T21:52:11.590Z,99.90
2023-04-18T21:56:13.472Z,99.90
2023-04-18T22:00:16.632Z,99.90
2023-04-18T22:04:19.976Z,99.90
2023-04-18T22:08:25.125Z,99.90
2023-04-18T22:12:26.473Z,99.90
2023-04-18T22:16:28.158Z,99.90
2023-04-18T22:20:30.990Z,99.90
2023-04-18T22:24:32.311Z,99.90
2023-04-18T22:28:33.629Z,99.90
2023-04-18T22:32:35.034Z,99.90
2023-04-18T22:36:36.956Z,99.90
2023-04-18T22:40:38.274Z,99.90
2023-04-18T22:44:39.676Z,99.90
2023-04-18T22:48:41.172Z,99.90
2023-04-18T22:52:42.484Z,99.90
2023-04-18T22:56:43.773Z,99.90
2023-04-18T23:00:45.388Z,99.90
2023-04-18T23:04:46.855Z,99.90
2023-04-18T23:08:48.411Z,99.90
2023-04-18T23:12:49.788Z,99.90
2023-04-18T23:16:50.945Z,99.90
2023-04-18T23:20:52.115Z,99.90
2023-04-18T23:24:54.186Z,99.90
2023-04-18T23:28:55.384Z,99.90
2023-04-18T23:32:56.596Z,99.90
2023-04-18T23:36:57.707Z,99.90
2023-04-18T23:40:58.792Z,99.90
2023-04-18T23:45:00.318Z,99.90
2023-04-18T23:49:01.482Z,99.90
2023-04-18T23:53:02.615Z,99.90
2023-04-18T23:57:03.832Z,99.90
